createdAt,value
2024-03-28T21:18:20.127Z,98605.90
2024-03-28T21:20:12.177Z,98610.16
2024-03-28T21:22:04.370Z,98617.69
2024-03-28T21:23:56.212Z,98620.42
2024-03-28T21:25:47.549Z,98624.52
2024-03-28T21:27:38.990Z,98628.95
2024-03-28T21:29:30.467Z,98636.70
2024-03-28T21:31:21.704Z,98642.95
2024-03-28T21:33:13.048Z,98645.30
2024-03-28T21:35:07.139Z,98650.71
2024-03-28T21:36:58.671Z,98651.70
2024-03-28T21:38:50.841Z,98650.51
2024-03-28T21:40:42.234Z,98652.86
2024-03-28T21:42:33.592Z,98652.80
2024-03-28T21:44:26.055Z,98654.66
2024-03-28T21:46:17.210Z,98660.61
2024-03-28T21:48:08.152Z,98661.37
2024-03-28T21:49:59.482Z,98666.67
2024-03-28T21:51:50.815Z,98668.09
2024-03-28T21:53:43.039Z,98672.19
2024-03-28T21:55:34.372Z,98671.64
2024-03-28T21:57:26.381Z,98678.56
2024-03-28T21:59:17.345Z,98680.00
2024-03-28T22:01:09.636Z,98677.52
2024-03-28T22:03:00.782Z,98683.35
2024-03-28T22:04:52.727Z,98683.20
2024-03-28T22:06:44.319Z,98686.35
2024-03-28T22:08:40.344Z,98692.30
2024-03-28T22:10:31.935Z,98694.54
2024-03-28T22:12:23.385Z,98700.20
2024-03-28T22:14:15.599Z,98701.73
2024-03-28T22:16:07.370Z,98701.52
2024-03-28T22:17:58.674Z,98706.02
2024-03-28T22:19:50.030Z,98708.19
2024-03-28T22:21:41.212Z,98714.84
2024-03-28T22:23:32.653Z,98717.55
2024-03-28T22:25:24.986Z,98721.97
2024-03-28T22:27:16.250Z,98719.95
2024-03-28T22:29:07.729Z,98719.48
2024-03-28T22:30:59.108Z,98720.83
2024-03-28T22:32:50.627Z,98719.19
2024-03-28T22:34:45.937Z,98722.13
2024-03-28T22:36:37.447Z,98720.80
2024-03-28T22:38:28.925Z,98721.49
2024-03-28T22:40:20.317Z,98725.20
2024-03-28T22:42:11.588Z,98727.05
2024-03-28T22:44:02.959Z,98733.49
2024-03-28T22:46:00.217Z,98739.98
2024-03-28T22:47:52.161Z,98741.85
2024-03-28T22:49:45.060Z,98749.64
2024-03-28T22:51:36.259Z,98753.14
2024-03-28T22:53:27.176Z,98754.29
2024-03-28T22:55:18.324Z,98760.89
2024-03-28T22:57:09.106Z,98764.13
2024-03-28T22:59:00.587Z,98767.11
2024-03-28T23:00:57.564Z,98774.11
2024-03-28T23:02:49.176Z,98773.98
2024-03-28T23:04:40.830Z,98781.63
2024-03-28T23:06:31.928Z,98780.40
2024-03-28T23:08:23.217Z,98786.20
2024-03-28T23:10:14.646Z,98793.96
2024-03-28T23:12:06.058Z,98800.54
2024-03-28T23:13:57.474Z,98801.55
2024-03-28T23:15:48.846Z,98807.31
2024-03-28T23:17:40.018Z,98811.91
2024-03-28T23:19:31.303Z,98821.46
2024-03-28T23:21:23.090Z,98826.32
